createdAt,value
2022-10-05T00:00:55.844Z,99109.66
2022-10-05T00:03:24.840Z,99107.88
2022-10-05T00:05:51.387Z,99100.75
2022-10-05T00:08:21.870Z,99087.41
2022-10-05T00:10:49.060Z,99099.00
2022-10-05T00:13:25.110Z,99094.53
2022-10-05T00:15:58.276Z,99088.25
2022-10-05T00:18:26.797Z,99071.38
2022-10-05T00:20:53.347Z,99082.00
2022-10-05T00:23:26.482Z,99084.66
2022-10-05T00:25:52.975Z,99081.13
2022-10-05T00:28:27.790Z,99082.03
2022-10-05T00:30:58.566Z,99086.53
2022-10-05T00:33:26.001Z,99090.00
2022-10-05T00:35:55.049Z,99094.59
2022-10-05T00:38:21.926Z,99103.50
2022-10-05T00:41:10.417Z,99099.97
2022-10-05T00:44:07.911Z,99107.13
2022-10-05T00:47:07.727Z,99108.06
2022-10-05T00:49:53.963Z,99116.09
2022-10-05T00:52:38.518Z,99097.53
2022-10-05T00:55:14.567Z,99099.28
2022-10-05T00:57:49.871Z,99093.97
2022-10-05T01:00:20.161Z,99089.53
2022-10-05T01:02:49.618Z,99086.88
2022-10-05T01:05:39.891Z,99088.63
2022-10-05T01:08:32.002Z,99071.78
2022-10-05T01:11:17.865Z,99077.13
2022-10-05T01:13:58.573Z,99072.81
2022-10-05T01:16:42.792Z,99069.28
2022-10-05T01:19:46.998Z,99074.59
2022-10-05T01:22:49.149Z,99071.06
2022-10-05T01:25:41.216Z,99074.59
2022-10-05T01:28:23.534Z,99079.91
2022-10-05T01:31:00.030Z,99071.97
2022-10-05T01:33:39.577Z,99072.88
2022-10-05T01:36:27.511Z,99061.28
2022-10-05T01:39:14.825Z,99065.75
2022-10-05T01:42:06.960Z,99071.13
2022-10-05T01:44:44.644Z,99072.09
2022-10-05T01:47:36.729Z,99076.50
2022-10-05T01:50:40.429Z,99077.41
2022-10-05T01:53:43.741Z,99075.66
2022-10-05T01:56:23.222Z,99074.75
2022-10-05T01:59:12.149Z,99071.34
2022-10-05T02:01:47.555Z,99074.88
2022-10-05T02:04:42.713Z,99074.88
2022-10-05T02:07:13.904Z,99073.22
2022-10-05T02:10:00.687Z,99082.09
2022-10-05T02:12:32.717Z,99076.84
2022-10-05T02:15:03.447Z,99075.97
2022-10-05T02:17:38.748Z,99075.97
2022-10-05T02:20:10.506Z,99085.69
2022-10-05T02:22:47.481Z,99083.06
2022-10-05T02:25:17.781Z,99079.53
2022-10-05T02:27:50.241Z,99082.22
2022-10-05T02:30:18.054Z,99076.84
2022-10-05T02:32:55.329Z,99069.75
2022-10-05T02:35:22.698Z,99060.88
2022-10-05T02:38:16.991Z,99062.63
2022-10-05T02:40:47.794Z,99060.84
2022-10-05T02:43:59.253Z,99052.03
2022-10-05T02:46:43.000Z,99035.25
2022-10-05T02:49:26.716Z,99031.72
2022-10-05T02:52:12.743Z,99024.66
2022-10-05T02:54:58.759Z,99014.94
2022-10-05T02:57:38.528Z,99006.06
2022-10-05T03:00:15.481Z,99007.84
2022-10-05T03:02:54.367Z,99007.84
2022-10-05T03:05:27.977Z,99005.13
2022-10-05T03:08:07.520Z,98999.81
2022-10-05T03:10:52.910Z,98992.75
2022-10-05T03:13:28.071Z,98988.31
2022-10-05T03:16:16.608Z,98987.41
2022-10-05T03:19:13.940Z,98989.22
2022-10-05T03:21:52.472Z,98979.56
2022-10-05T03:24:37.348Z,98980.44
2022-10-05T03:27:13.197Z,98977.78
2022-10-05T03:30:05.329Z,98977.75
2022-10-05T03:32:54.349Z,98983.06
2022-10-05T03:35:53.088Z,98988.38
2022-10-05T03:38:43.596Z,98979.50
2022-10-05T03:41:13.247Z,98971.50
2022-10-05T03:43:39.704Z,98973.34
2022-10-05T03:46:22.612Z,98988.41
2022-10-05T03:49:04.219Z,98979.53
2022-10-05T03:51:37.265Z,98981.38
2022-10-05T03:54:13.417Z,98983.13
2022-10-05T03:56:52.747Z,98976.94
2022-10-05T03:59:33.699Z,98986.69
2022-10-05T04:02:16.268Z,98987.59
2022-10-05T04:04:45.167Z,98982.34
2022-10-05T04:07:30.843Z,98984.13
2022-10-05T04:09:59.427Z,98985.84
2022-10-05T04:12:32.205Z,98980.47
2022-10-05T04:15:04.080Z,98978.75
2022-10-05T04:17:34.406Z,98981.41
2022-10-05T04:20:00.844Z,98977.03
2022-10-05T04:22:47.718Z,98980.56
2022-10-05T04:25:18.741Z,98971.69
2022-10-05T04:27:54.906Z,98967.25
2022-10-05T04:30:24.589Z,98962.78
2022-10-05T04:32:57.305Z,98956.66
2022-10-05T04:35:44.810Z,98954.03
2022-10-05T04:38:29.918Z,98946.03
2022-10-05T04:41:09.659Z,98944.38
2022-10-05T04:43:57.077Z,98934.56
2022-10-05T04:46:32.823Z,98933.69
2022-10-05T04:49:12.400Z,98941.72
2022-10-05T04:52:09.450Z,98937.34
2022-10-05T04:54:55.404Z,98932.03
2022-10-05T04:57:31.684Z,98930.19
2022-10-05T05:00:05.585Z,98919.56
2022-10-05T05:02:53.708Z,98923.16
2022-10-05T05:05:32.289Z,98918.69
2022-10-05T05:08:04.818Z,98918.69
2022-10-05T05:10:51.461Z,98921.31
2022-10-05T05:13:27.358Z,98914.16
2022-10-05T05:16:16.539Z,98917.72
2022-10-05T05:18:55.110Z,98918.59
2022-10-05T05:21:42.494Z,98924.72
2022-10-05T05:24:20.074Z,98928.97
2022-10-05T05:27:01.623Z,98927.22
2022-10-05T05:29:52.878Z,98925.44
2022-10-05T05:32:39.231Z,98931.78
2022-10-05T05:35:37.345Z,98914.94
2022-10-05T05:38:22.603Z,98929.13
2022-10-05T05:41:07.755Z,98918.50
2022-10-05T05:43:47.918Z,98925.63
2022-10-05T05:46:33.969Z,98925.63
2022-10-05T05:49:31.040Z,98924.72
2022-10-05T05:52:16.148Z,98920.25
2022-10-05T05:54:50.082Z,98915.69
2022-10-05T05:57:26.742Z,98924.38
2022-10-05T06:00:06.748Z,98924.31
2022-10-05T06:02:42.967Z,98926.94
2022-10-05T06:05:21.825Z,98918.94
2022-10-05T06:07:49.745Z,98924.16
2022-10-05T06:10:27.395Z,98911.72
2022-10-05T06:13:00.905Z,98914.38
2022-10-05T06:15:42.894Z,98912.53
2022-10-05T06:18:16.193Z,98900.94
2022-10-05T06:20:48.653Z,98901.84
2022-10-05T06:23:23.368Z,98914.31
2022-10-05T06:26:09.747Z,98924.88
2022-10-05T06:28:37.965Z,98920.44
2022-10-05T06:31:26.516Z,98913.34
2022-10-05T06:34:17.776Z,98917.66
2022-10-05T06:37:00.078Z,98923.81
2022-10-05T06:39:38.690Z,98924.66
2022-10-05T06:42:37.609Z,98918.41
2022-10-05T06:45:24.464Z,98920.16
2022-10-05T06:48:46.790Z,98917.38
2022-10-05T06:51:26.106Z,98915.50
2022-10-05T06:54:21.894Z,98918.13
2022-10-05T06:56:59.878Z,98927.72
2022-10-05T06:59:57.913Z,98921.38
2022-10-05T07:02:42.269Z,98921.34
2022-10-05T07:05:45.242Z,98927.56
2022-10-05T07:08:29.056Z,98931.97
2022-10-05T07:11:13.862Z,98943.47
2022-10-05T07:14:14.472Z,98943.47
2022-10-05T07:16:59.460Z,98932.66
2022-10-05T07:19:46.487Z,98939.78
2022-10-05T07:22:31.703Z,98932.66
2022-10-05T07:25:03.586Z,98931.75
2022-10-05T07:27:35.706Z,98939.66
2022-10-05T07:30:12.365Z,98940.47
2022-10-05T07:33:40.191Z,98951.13
2022-10-05T07:36:50.968Z,98939.63
2022-10-05T07:39:42.149Z,98938.69
2022-10-05T07:42:33.121Z,98938.69
2022-10-05T07:45:44.271Z,98946.66
2022-10-05T07:48:29.150Z,98947.53
2022-10-05T07:51:03.297Z,98951.88
2022-10-05T07:53:39.800Z,98949.13
2022-10-05T07:56:33.244Z,98949.13
2022-10-05T07:59:38.741Z,98949.06
2022-10-05T08:02:18.762Z,98943.56
2022-10-05T08:04:58.637Z,98956.63
2022-10-05T08:07:27.621Z,98963.59
2022-10-05T08:10:26.855Z,98957.25
2022-10-05T08:13:12.007Z,98963.19
2022-10-05T08:15:45.408Z,98965.59
2022-10-05T08:18:21.742Z,98951.38
2022-10-05T08:20:58.723Z,98965.69
2022-10-05T08:23:54.194Z,98971.13
2022-10-05T08:26:31.186Z,98972.97
2022-10-05T08:29:03.715Z,98969.50
2022-10-05T08:31:37.353Z,98981.84
2022-10-05T08:34:12.595Z,98977.16
2022-10-05T08:36:39.062Z,98970.78
2022-10-05T08:39:15.352Z,98978.41
2022-10-05T08:41:52.899Z,98984.59
2022-10-05T08:44:58.290Z,98987.44
2022-10-05T08:47:48.438Z,98984.94
2022-10-05T08:50:24.153Z,98998.25
2022-10-05T08:52:59.447Z,98998.88
2022-10-05T08:55:43.466Z,98985.09
2022-10-05T08:58:40.967Z,98976.81
2022-10-05T09:01:20.789Z,98980.81
2022-10-05T09:04:21.299Z,98978.28
2022-10-05T09:07:03.786Z,98977.66
2022-10-05T09:10:35.082Z,98972.91
2022-10-05T09:13:01.512Z,98979.72
2022-10-05T09:15:27.946Z,98986.81
2022-10-05T09:18:18.770Z,98975.13
2022-10-05T09:20:53.290Z,98985.16
2022-10-05T09:23:39.851Z,98985.34
2022-10-05T09:26:27.923Z,98980.69
2022-10-05T09:29:32.163Z,98983.38
2022-10-05T09:32:25.112Z,98987.47
2022-10-05T09:35:10.272Z,98992.25
2022-10-05T09:37:57.254Z,98988.97
2022-10-05T09:41:02.333Z,98995.59
2022-10-05T09:43:52.971Z,98998.00
2022-10-05T09:46:52.140Z,98992.38
2022-10-05T09:49:28.477Z,99005.25
2022-10-05T09:52:18.938Z,98996.50
2022-10-05T09:55:20.908Z,98997.03
2022-10-05T09:58:23.209Z,99000.78
2022-10-05T10:01:36.413Z,99007.25
2022-10-05T10:04:10.181Z,98998.50
2022-10-05T10:06:36.652Z,99000.41
2022-10-05T10:09:21.994Z,98999.53
2022-10-05T10:12:03.554Z,99004.00
2022-10-05T10:15:27.032Z,98995.19
2022-10-05T10:18:28.626Z,99000.28
2022-10-05T10:21:12.786Z,98994.97
2022-10-05T10:24:02.171Z,99005.78
2022-10-05T10:26:47.656Z,98981.84
2022-10-05T10:29:33.937Z,98994.34
2022-10-05T10:32:24.730Z,98988.88
2022-10-05T10:35:04.240Z,98991.94
2022-10-05T10:37:58.649Z,98995.09
2022-10-05T10:40:36.807Z,98992.63
2022-10-05T10:43:22.266Z,98993.28
2022-10-05T10:46:00.007Z,98985.28
2022-10-05T10:48:29.572Z,98979.25
2022-10-05T10:51:17.425Z,98978.81
2022-10-05T10:54:19.289Z,98981.16
2022-10-05T10:57:04.008Z,98975.34
2022-10-05T10:59:50.725Z,98978.13
2022-10-05T11:02:38.350Z,98976.97
2022-10-05T11:05:35.778Z,98989.34
2022-10-05T11:08:06.138Z,98977.63
2022-10-05T11:10:50.577Z,98989.66
2022-10-05T11:14:02.891Z,98981.13
2022-10-05T11:17:03.907Z,98982.78
2022-10-05T11:20:05.318Z,98981.75
2022-10-05T11:22:54.668Z,98976.25
2022-10-05T11:25:44.386Z,98977.19
2022-10-05T11:28:27.557Z,98978.09
2022-10-05T11:31:15.548Z,98981.75
2022-10-05T11:34:10.480Z,98982.16
2022-10-05T11:36:55.670Z,98957.72
2022-10-05T11:39:30.277Z,98959.19
2022-10-05T11:42:14.822Z,98958.63
2022-10-05T11:44:47.035Z,98937.13
2022-10-05T11:47:35.648Z,98944.47
2022-10-05T11:50:23.922Z,98941.19
2022-10-05T11:52:53.286Z,98929.09
2022-10-05T11:55:22.707Z,98933.88
2022-10-05T11:58:23.507Z,98936.53
2022-10-05T12:01:04.284Z,98923.94
2022-10-05T12:03:42.963Z,98913.19
2022-10-05T12:06:15.231Z,98923.75
2022-10-05T12:09:06.001Z,98922.41
2022-10-05T12:11:58.454Z,98909.22
2022-10-05T12:14:25.099Z,98911.84
2022-10-05T12:17:00.704Z,98905.94
2022-10-05T12:19:36.754Z,98903.13
2022-10-05T12:22:21.658Z,98906.72
2022-10-05T12:25:01.789Z,98898.66
2022-10-05T12:27:37.634Z,98894.81
2022-10-05T12:30:32.027Z,98878.97
2022-10-05T12:33:16.427Z,98880.81
2022-10-05T12:35:52.967Z,98869.00
2022-10-05T12:38:53.336Z,98869.97
2022-10-05T12:41:28.642Z,98868.97
2022-10-05T12:44:13.785Z,98858.66
2022-10-05T12:47:11.115Z,98868.53
2022-10-05T12:50:19.537Z,98860.34
2022-10-05T12:52:51.709Z,98860.59
2022-10-05T12:55:18.138Z,98854.28
2022-10-05T12:57:53.464Z,98837.59
2022-10-05T13:00:23.168Z,98842.97
2022-10-05T13:02:57.595Z,98836.28
2022-10-05T13:05:58.957Z,98836.22
2022-10-05T13:08:56.469Z,98835.00
2022-10-05T13:11:58.631Z,98835.72
2022-10-05T13:14:52.054Z,98835.91
2022-10-05T13:17:40.842Z,98820.59
2022-10-05T13:20:22.528Z,98817.69
2022-10-05T13:22:59.321Z,98820.22
2022-10-05T13:25:36.975Z,98813.31
2022-10-05T13:28:33.893Z,98796.66
2022-10-05T13:31:13.099Z,98803.97
2022-10-05T13:34:02.542Z,98801.25
2022-10-05T13:36:50.404Z,98783.56
2022-10-05T13:39:27.945Z,98780.09
2022-10-05T13:42:04.616Z,98772.91
2022-10-05T13:44:48.585Z,98772.81
2022-10-05T13:47:46.498Z,98771.06
2022-10-05T13:50:33.466Z,98777.00
2022-10-05T13:53:29.563Z,98767.91
2022-10-05T13:56:05.439Z,98768.72
2022-10-05T13:58:34.571Z,98775.00
2022-10-05T14:01:16.145Z,98758.06
2022-10-05T14:04:04.593Z,98753.66
2022-10-05T14:06:35.285Z,98753.59
2022-10-05T14:09:01.909Z,98735.59
2022-10-05T14:11:36.426Z,98739.91
2022-10-05T14:14:14.059Z,98753.16
2022-10-05T14:16:55.655Z,98739.59
2022-10-05T14:19:33.848Z,98735.13
2022-10-05T14:22:10.314Z,98737.84
2022-10-05T14:24:46.423Z,98728.91
2022-10-05T14:27:26.900Z,98727.09
2022-10-05T14:30:00.468Z,98731.22
2022-10-05T14:32:33.031Z,98730.34
2022-10-05T14:35:15.127Z,98714.41
2022-10-05T14:37:53.587Z,98712.56
2022-10-05T14:40:29.185Z,98725.94
2022-10-05T14:42:57.376Z,98714.13
2022-10-05T14:45:26.518Z,98692.59
2022-10-05T14:48:02.273Z,98698.06
2022-10-05T14:50:31.272Z,98696.25
2022-10-05T14:53:16.710Z,98690.03
2022-10-05T14:56:11.167Z,98686.38
2022-10-05T14:58:43.727Z,98682.00
2022-10-05T15:01:35.013Z,98678.59
2022-10-05T15:04:25.213Z,98678.78
2022-10-05T15:07:38.873Z,98666.75
2022-10-05T15:10:27.034Z,98668.19
2022-10-05T15:13:10.641Z,98674.13
2022-10-05T15:15:49.552Z,98673.31
2022-10-05T15:18:42.459Z,98667.28
2022-10-05T15:21:33.910Z,98655.00
2022-10-05T15:24:05.507Z,98645.22
2022-10-05T15:26:53.757Z,98639.69
2022-10-05T15:29:32.064Z,98646.03
2022-10-05T15:32:22.687Z,98639.63
2022-10-05T15:35:16.243Z,98645.03
2022-10-05T15:37:47.647Z,98645.97
2022-10-05T15:40:46.448Z,98647.16
2022-10-05T15:43:21.849Z,98645.34
2022-10-05T15:45:52.941Z,98648.00
2022-10-05T15:48:29.071Z,98623.19
2022-10-05T15:51:17.341Z,98622.31
2022-10-05T15:54:20.913Z,98631.28
2022-10-05T15:56:57.361Z,98626.03
2022-10-05T15:59:37.527Z,98638.72
2022-10-05T16:02:18.987Z,98635.97
2022-10-05T16:05:01.141Z,98629.59
2022-10-05T16:07:59.696Z,98636.06
2022-10-05T16:10:26.697Z,98623.59
2022-10-05T16:12:53.136Z,98638.59
2022-10-05T16:15:35.676Z,98648.50
2022-10-05T16:18:12.170Z,98641.56
2022-10-05T16:20:48.375Z,98639.03
2022-10-05T16:23:36.848Z,98632.88
2022-10-05T16:26:09.052Z,98646.25
2022-10-05T16:29:13.009Z,98645.31
2022-10-05T16:32:05.816Z,98632.94
2022-10-05T16:35:09.962Z,98628.69
2022-10-05T16:37:54.279Z,98625.94
2022-10-05T16:40:29.888Z,98634.09
2022-10-05T16:43:05.348Z,98635.91
2022-10-05T16:45:51.712Z,98628.06
2022-10-05T16:48:25.342Z,98631.53
2022-10-05T16:51:13.832Z,98635.09
2022-10-05T16:53:52.570Z,98627.94
2022-10-05T16:56:25.219Z,98641.25
2022-10-05T16:59:10.535Z,98637.72
2022-10-05T17:02:18.816Z,98644.72
2022-10-05T17:05:21.855Z,98651.88
2022-10-05T17:08:21.471Z,98656.44
2022-10-05T17:11:03.227Z,98671.78
2022-10-05T17:13:51.062Z,98669.25
2022-10-05T17:16:33.222Z,98663.84
2022-10-05T17:19:05.827Z,98657.63
2022-10-05T17:21:45.963Z,98675.31
2022-10-05T17:24:12.343Z,98662.47
2022-10-05T17:26:53.928Z,98659.91
2022-10-05T17:29:26.838Z,98665.34
2022-10-05T17:32:30.494Z,98653.69
2022-10-05T17:35:02.600Z,98661.50
2022-10-05T17:38:21.753Z,98654.84
2022-10-05T17:41:01.017Z,98656.66
2022-10-05T17:43:30.736Z,98664.63
2022-10-05T17:46:02.535Z,98657.53
2022-10-05T17:48:36.146Z,98657.47
2022-10-05T17:51:21.979Z,98646.81
2022-10-05T17:54:08.693Z,98636.22
2022-10-05T17:56:47.511Z,98637.19
2022-10-05T17:59:45.980Z,98633.94
2022-10-05T18:02:26.660Z,98625.94
2022-10-05T18:05:04.916Z,98642.75
2022-10-05T18:07:35.757Z,98633.69
2022-10-05T18:10:17.432Z,98639.97
2022-10-05T18:12:51.550Z,98643.56
2022-10-05T18:15:24.096Z,98635.66
2022-10-05T18:18:18.860Z,98660.69
2022-10-05T18:21:20.440Z,98638.44
2022-10-05T18:23:52.688Z,98650.94
2022-10-05T18:26:43.571Z,98653.66
2022-10-05T18:30:02.925Z,98663.59
2022-10-05T18:32:39.806Z,98659.06
2022-10-05T18:35:16.081Z,98679.59
2022-10-05T18:38:09.885Z,98682.25
2022-10-05T18:40:59.240Z,98685.84
2022-10-05T18:43:53.123Z,98692.94
2022-10-05T18:46:41.404Z,98718.03
2022-10-05T18:49:40.094Z,98711.00
2022-10-05T18:52:54.920Z,98706.66
2022-10-05T18:55:47.491Z,98727.91
2022-10-05T18:58:29.982Z,98724.44
2022-10-05T19:01:20.794Z,98714.53
2022-10-05T19:04:22.519Z,98731.53
2022-10-05T19:07:01.796Z,98723.56
2022-10-05T19:09:28.245Z,98739.69
2022-10-05T19:12:11.888Z,98753.13
2022-10-05T19:14:54.153Z,98756.66
2022-10-05T19:17:24.719Z,98734.34
2022-10-05T19:19:51.154Z,98753.00
2022-10-05T19:22:35.778Z,98784.31
2022-10-05T19:25:20.917Z,98761.03
2022-10-05T19:28:26.737Z,98777.03
2022-10-05T19:31:18.257Z,98776.97
2022-10-05T19:34:16.530Z,98796.56
2022-10-05T19:36:58.467Z,98789.56
2022-10-05T19:39:53.609Z,98799.44
2022-10-05T19:43:01.277Z,98797.53
2022-10-05T19:45:31.933Z,98786.78
2022-10-05T19:48:35.531Z,98803.47
2022-10-05T19:51:05.541Z,98797.84
2022-10-05T19:53:54.428Z,98805.03
2022-10-05T19:56:25.361Z,98798.06
2022-10-05T19:58:57.398Z,98808.69
2022-10-05T20:01:34.144Z,98817.44
2022-10-05T20:04:01.190Z,98820.94
2022-10-05T20:06:29.453Z,98821.81
2022-10-05T20:09:00.039Z,98826.28
2022-10-05T20:11:28.322Z,98826.25
2022-10-05T20:13:57.409Z,98825.38
2022-10-05T20:16:50.427Z,98833.41
2022-10-05T20:19:55.075Z,98844.91
2022-10-05T20:22:26.108Z,98848.47
2022-10-05T20:24:54.917Z,98850.31
2022-10-05T20:27:39.727Z,98859.06
2022-10-05T20:30:07.909Z,98864.53
2022-10-05T20:32:34.424Z,98869.97
2022-10-05T20:35:00.869Z,98874.63
2022-10-05T20:37:36.846Z,98872.00
2022-10-05T20:40:04.679Z,98887.94
2022-10-05T20:42:31.284Z,98897.88
2022-10-05T20:44:57.928Z,98883.69
2022-10-05T20:47:25.448Z,98894.38
2022-10-05T20:49:54.444Z,98905.88
2022-10-05T20:52:22.204Z,98895.19
2022-10-05T20:54:53.811Z,98914.88
2022-10-05T20:57:24.202Z,98913.97
2022-10-05T20:59:51.479Z,98916.88
2022-10-05T21:02:21.079Z,98924.91
2022-10-05T21:04:47.812Z,98923.16
2022-10-05T21:07:20.977Z,98919.56
2022-10-05T21:09:47.569Z,98918.72
2022-10-05T21:12:14.327Z,98931.16
2022-10-05T21:14:40.834Z,98925.00
2022-10-05T21:17:07.850Z,98927.66
2022-10-05T21:19:38.409Z,98913.38
2022-10-05T21:22:10.059Z,98905.53
2022-10-05T21:24:37.964Z,98917.97
2022-10-05T21:27:05.382Z,98918.09
2022-10-05T21:29:34.144Z,98922.78
2022-10-05T21:32:01.138Z,98924.66
2022-10-05T21:34:28.666Z,98917.44
2022-10-05T21:36:55.265Z,98924.63
2022-10-05T21:39:21.929Z,98938.03
2022-10-05T21:41:49.778Z,98943.38
2022-10-05T21:44:16.619Z,98945.94
2022-10-05T21:46:43.225Z,98949.50
2022-10-05T21:49:09.844Z,98952.84
2022-10-05T21:51:37.310Z,98963.66
2022-10-05T21:54:16.668Z,98962.66
2022-10-05T21:56:46.900Z,98964.34
2022-10-05T21:59:18.688Z,98963.53
2022-10-05T22:01:45.963Z,98963.56
2022-10-05T22:04:12.477Z,98969.78
2022-10-05T22:06:38.954Z,98966.06
2022-10-05T22:09:05.557Z,98969.56
2022-10-05T22:11:32.734Z,98969.63
2022-10-05T22:14:02.688Z,98973.13
2022-10-05T22:16:35.169Z,98980.16
2022-10-05T22:19:10.465Z,98983.72
2022-10-05T22:21:41.382Z,98979.19
2022-10-05T22:24:09.133Z,98965.75
2022-10-05T22:26:36.078Z,98976.47
2022-10-05T22:29:03.467Z,98976.44
2022-10-05T22:31:30.163Z,98967.78
2022-10-05T22:33:56.794Z,98957.94
2022-10-05T22:36:23.395Z,98958.88
2022-10-05T22:38:53.392Z,98960.59
2022-10-05T22:41:19.876Z,98948.97
2022-10-05T22:43:50.795Z,98951.63
2022-10-05T22:46:18.469Z,98961.44
2022-10-05T22:48:45.090Z,98957.81
2022-10-05T22:51:11.635Z,98965.69
2022-10-05T22:53:38.129Z,98974.72
2022-10-05T22:56:06.775Z,98964.88
2022-10-05T22:58:33.273Z,98983.50
2022-10-05T23:01:01.634Z,98983.59
2022-10-05T23:03:28.165Z,98990.78
2022-10-05T23:06:07.960Z,98990.78
2022-10-05T23:08:42.967Z,99003.03
2022-10-05T23:11:13.767Z,98995.00
2022-10-05T23:13:40.620Z,98995.00
2022-10-05T23:16:09.563Z,98995.00
2022-10-05T23:18:36.647Z,98999.34
2022-10-05T23:21:05.665Z,98993.81
2022-10-05T23:23:32.126Z,99011.69
2022-10-05T23:26:00.228Z,99006.22
2022-10-05T23:28:28.299Z,99010.69
2022-10-05T23:31:02.698Z,98997.31
2022-10-05T23:33:29.409Z,98981.28
2022-10-05T23:35:59.755Z,98994.75
2022-10-05T23:38:26.991Z,98990.47
2022-10-05T23:40:54.011Z,98994.16
2022-10-05T23:43:20.557Z,98988.00
2022-10-05T23:45:47.456Z,98994.25
2022-10-05T23:48:17.366Z,99006.81
2022-10-05T23:50:47.701Z,99027.28
2022-10-05T23:53:15.163Z,99035.22
2022-10-05T23:55:42.033Z,99043.94
2022-10-05T23:58:09.712Z,99024.22
